createdAt,value
2023-03-22T00:01:01.299Z,88
2023-03-22T00:03:31.328Z,85
2023-03-22T00:06:01.931Z,80
2023-03-22T00:08:32.892Z,86
2023-03-22T00:11:07.105Z,84
2023-03-22T00:13:37.236Z,85
2023-03-22T00:16:07.747Z,83
2023-03-22T00:18:40.328Z,86
2023-03-22T00:21:10.736Z,83
2023-03-22T00:23:42.220Z,81
2023-03-22T00:26:14.929Z,88
2023-03-22T00:28:45.428Z,84
2023-03-22T00:31:17.969Z,88
2023-03-22T00:33:48.322Z,85
2023-03-22T00:36:18.768Z,89
2023-03-22T00:38:53.232Z,84
2023-03-22T00:41:23.814Z,84
2023-03-22T00:43:56.441Z,84
2023-03-22T00:46:27.101Z,86
2023-03-22T00:48:57.912Z,80
2023-03-22T00:51:28.045Z,88
2023-03-22T00:53:58.815Z,87
2023-03-22T00:56:29.264Z,79
2023-03-22T00:59:01.807Z,84
2023-03-22T01:01:32.454Z,84
2023-03-22T01:04:03.012Z,91
2023-03-22T01:06:33.187Z,83
2023-03-22T01:09:04.313Z,84
2023-03-22T01:11:35.259Z,90
2023-03-22T01:14:04.101Z,85
2023-03-22T01:16:34.651Z,84
2023-03-22T01:19:05.963Z,87
2023-03-22T01:21:36.180Z,84
2023-03-22T01:24:06.936Z,87
2023-03-22T01:26:38.256Z,82
2023-03-22T01:29:12.104Z,79
2023-03-22T01:31:42.643Z,84
2023-03-22T01:34:12.993Z,82
2023-03-22T01:36:43.855Z,79
2023-03-22T01:39:21.040Z,76
2023-03-22T01:41:54.715Z,76
2023-03-22T01:44:25.536Z,79
2023-03-22T01:46:56.268Z,77
2023-03-22T01:49:27.059Z,76
2023-03-22T01:51:57.459Z,73
2023-03-22T01:54:28.552Z,73
2023-03-22T01:57:02.093Z,75
2023-03-22T01:59:34.381Z,79
2023-03-22T02:02:05.027Z,73
2023-03-22T02:04:35.561Z,75
2023-03-22T02:07:05.753Z,79
2023-03-22T02:09:36.679Z,76
2023-03-22T02:12:07.220Z,76
2023-03-22T02:14:39.231Z,80
2023-03-22T02:17:10.011Z,83
2023-03-22T02:19:43.416Z,73
2023-03-22T02:22:13.784Z,77
2023-03-22T02:24:44.954Z,75
2023-03-22T02:27:17.990Z,80
2023-03-22T02:29:48.989Z,86
2023-03-22T02:32:23.599Z,76
2023-03-22T02:34:54.342Z,84
2023-03-22T02:37:25.345Z,80
2023-03-22T02:39:55.595Z,85
2023-03-22T02:42:25.957Z,77
2023-03-22T02:44:56.785Z,72
2023-03-22T02:47:27.841Z,77
2023-03-22T02:49:58.740Z,71
2023-03-22T02:52:30.511Z,76
2023-03-22T02:55:05.003Z,74
2023-03-22T02:57:35.554Z,81
2023-03-22T03:00:06.310Z,78
2023-03-22T03:02:36.789Z,76
2023-03-22T03:05:07.047Z,75
2023-03-22T03:07:37.987Z,73
2023-03-22T03:10:09.414Z,71
2023-03-22T03:12:40.526Z,73
2023-03-22T03:15:14.019Z,75
2023-03-22T03:17:44.931Z,76
2023-03-22T03:20:14.352Z,78
2023-03-22T03:22:44.649Z,72
2023-03-22T03:25:20.217Z,70
2023-03-22T03:27:51.603Z,73
2023-03-22T03:30:22.189Z,73
2023-03-22T03:32:52.641Z,72
2023-03-22T03:35:23.879Z,70
2023-03-22T03:37:54.750Z,69
2023-03-22T03:40:26.040Z,71
2023-03-22T03:42:56.338Z,69
2023-03-22T03:45:27.023Z,72
2023-03-22T03:47:58.464Z,66
2023-03-22T03:50:29.058Z,72
2023-03-22T03:52:59.644Z,76
2023-03-22T03:55:31.105Z,72
2023-03-22T03:58:02.301Z,72
2023-03-22T04:00:42.350Z,72
2023-03-22T04:03:12.972Z,72
2023-03-22T04:05:43.408Z,74
2023-03-22T04:08:13.958Z,69
2023-03-22T04:10:44.223Z,68
2023-03-22T04:13:17.916Z,67
2023-03-22T04:15:48.733Z,68
2023-03-22T04:18:21.475Z,65
2023-03-22T04:20:54.458Z,63
2023-03-22T04:23:27.610Z,64
2023-03-22T04:25:57.972Z,68
2023-03-22T04:28:29.136Z,68
2023-03-22T04:31:00.045Z,72
2023-03-22T04:33:30.794Z,75
2023-03-22T04:36:04.147Z,74
2023-03-22T04:38:32.940Z,68
2023-03-22T04:41:04.904Z,64
2023-03-22T04:43:34.535Z,66
2023-03-22T04:46:05.816Z,65
2023-03-22T04:48:36.636Z,64
2023-03-22T04:51:07.438Z,62
2023-03-22T04:53:41.463Z,64
2023-03-22T04:56:11.771Z,64
2023-03-22T04:58:46.048Z,64
2023-03-22T05:01:16.978Z,62
2023-03-22T05:03:50.592Z,61
2023-03-22T05:06:21.462Z,68
2023-03-22T05:08:52.307Z,71
2023-03-22T05:11:32.054Z,66
2023-03-22T05:14:02.771Z,62
2023-03-22T05:16:33.776Z,64
2023-03-22T05:19:04.613Z,71
2023-03-22T05:21:35.008Z,71
2023-03-22T05:24:08.012Z,73
2023-03-22T05:26:39.891Z,71
2023-03-22T05:29:10.586Z,70
2023-03-22T05:31:41.120Z,68
2023-03-22T05:34:11.633Z,67
2023-03-22T05:36:42.181Z,73
2023-03-22T05:39:13.018Z,80
2023-03-22T05:41:45.686Z,72
2023-03-22T05:44:16.044Z,67
2023-03-22T05:46:46.503Z,72
2023-03-22T05:49:22.585Z,68
2023-03-22T05:51:57.959Z,70
2023-03-22T05:54:34.703Z,68
2023-03-22T05:57:09.791Z,73
2023-03-22T05:59:40.181Z,70
2023-03-22T06:02:10.662Z,73
2023-03-22T06:04:44.792Z,70
2023-03-22T06:07:18.499Z,71
2023-03-22T06:09:53.837Z,71
2023-03-22T06:12:23.210Z,82
2023-03-22T06:14:53.476Z,76
2023-03-22T06:17:24.097Z,80
2023-03-22T06:19:54.608Z,84
2023-03-22T06:22:31.948Z,79
2023-03-22T06:25:02.722Z,77
2023-03-22T06:27:36.594Z,87
2023-03-22T06:30:09.317Z,72
2023-03-22T06:32:40.834Z,72
2023-03-22T06:35:20.144Z,68
2023-03-22T06:37:50.853Z,70
2023-03-22T06:40:21.127Z,64
2023-03-22T06:42:51.881Z,63
2023-03-22T06:45:23.201Z,62
2023-03-22T06:47:54.765Z,59
2023-03-22T06:50:28.922Z,56
2023-03-22T06:53:09.246Z,55
2023-03-22T06:55:43.142Z,59
2023-03-22T06:58:14.276Z,57
2023-03-22T07:00:47.708Z,58
2023-03-22T07:03:20.019Z,56
2023-03-22T07:05:52.314Z,54
2023-03-22T07:08:23.392Z,57
2023-03-22T07:10:54.052Z,56
2023-03-22T07:13:24.796Z,54
2023-03-22T07:15:58.955Z,58
2023-03-22T07:18:33.372Z,56
2023-03-22T07:21:04.061Z,56
2023-03-22T07:23:34.337Z,57
2023-03-22T07:26:05.117Z,57
2023-03-22T07:28:35.332Z,57
2023-03-22T07:31:07.004Z,55
2023-03-22T07:33:38.457Z,59
2023-03-22T07:36:10.784Z,51
2023-03-22T07:38:41.342Z,56
2023-03-22T07:41:11.392Z,52
2023-03-22T07:43:53.283Z,52
2023-03-22T07:46:14.571Z,56
2023-03-22T07:48:45.229Z,54
2023-03-22T07:51:16.783Z,55
2023-03-22T07:53:48.632Z,54
2023-03-22T07:56:19.983Z,51
2023-03-22T07:58:50.835Z,51
2023-03-22T08:01:20.971Z,49
2023-03-22T08:03:51.360Z,48
2023-03-22T08:06:22.648Z,50
2023-03-22T08:08:51.740Z,63
2023-03-22T08:11:22.083Z,47
2023-03-22T08:13:52.482Z,51
2023-03-22T08:16:27.897Z,51
2023-03-22T08:18:58.276Z,55
2023-03-22T08:21:32.947Z,63
2023-03-22T08:24:03.273Z,46
2023-03-22T08:26:39.250Z,47
2023-03-22T08:29:12.380Z,60
2023-03-22T08:31:46.523Z,49
2023-03-22T08:34:16.925Z,49
2023-03-22T08:36:47.937Z,48
2023-03-22T08:39:18.896Z,59
2023-03-22T08:41:49.853Z,48
2023-03-22T08:44:21.141Z,52
2023-03-22T08:46:52.219Z,50
2023-03-22T08:49:23.147Z,52
2023-03-22T08:51:57.876Z,42
2023-03-22T08:54:30.068Z,48
2023-03-22T08:57:03.818Z,46
2023-03-22T08:59:36.025Z,44
2023-03-22T09:02:07.010Z,42
2023-03-22T09:04:39.665Z,50
2023-03-22T09:07:11.872Z,53
2023-03-22T09:09:42.874Z,48
2023-03-22T09:12:14.334Z,48
2023-03-22T09:14:45.250Z,56
2023-03-22T09:17:15.939Z,71
2023-03-22T09:19:47.288Z,65
2023-03-22T09:22:18.263Z,48
2023-03-22T09:24:51.669Z,49
2023-03-22T09:27:25.974Z,48
2023-03-22T09:29:56.647Z,49
2023-03-22T09:32:28.114Z,48
2023-03-22T09:34:59.387Z,47
2023-03-22T09:37:29.479Z,60
2023-03-22T09:40:00.110Z,50
2023-03-22T09:42:34.842Z,47
2023-03-22T09:45:06.926Z,55
2023-03-22T09:47:45.457Z,50
2023-03-22T09:50:12.459Z,46
2023-03-22T09:52:43.442Z,48
2023-03-22T09:55:14.298Z,47
2023-03-22T09:57:45.370Z,48
2023-03-22T10:00:16.952Z,50
2023-03-22T10:02:49.686Z,51
2023-03-22T10:05:25.053Z,48
2023-03-22T10:07:55.295Z,52
2023-03-22T10:10:25.934Z,55
2023-03-22T10:12:56.550Z,57
2023-03-22T10:15:27.110Z,53
2023-03-22T10:17:58.697Z,48
2023-03-22T10:20:31.529Z,53
2023-03-22T10:23:05.111Z,52
2023-03-22T10:25:35.500Z,50
2023-03-22T10:28:09.473Z,46
2023-03-22T10:30:44.196Z,56
2023-03-22T10:33:16.509Z,44
2023-03-22T10:35:47.521Z,39
2023-03-22T10:38:19.080Z,40
2023-03-22T10:40:49.747Z,51
2023-03-22T10:43:24.603Z,49
2023-03-22T10:45:57.205Z,48
2023-03-22T10:51:09.516Z,47
2023-03-22T10:53:40.167Z,39
2023-03-22T10:56:11.115Z,45
2023-03-22T10:58:42.047Z,40
2023-03-22T11:01:14.465Z,45
2023-03-22T11:03:44.811Z,42
2023-03-22T11:06:16.747Z,43
2023-03-22T11:08:47.807Z,39
2023-03-22T11:11:18.611Z,43
2023-03-22T11:16:52.896Z,36
2023-03-22T11:19:27.226Z,36
2023-03-22T11:22:00.452Z,32
2023-03-22T11:24:31.857Z,35
2023-03-22T11:27:02.721Z,28
2023-03-22T11:29:33.343Z,33
2023-03-22T11:32:07.045Z,32
2023-03-22T11:34:38.542Z,36
2023-03-22T11:37:09.558Z,50
2023-03-22T11:39:40.872Z,28
2023-03-22T11:42:12.219Z,29
2023-03-22T11:44:42.622Z,24
2023-03-22T11:47:14.667Z,24
2023-03-22T11:49:45.442Z,26
2023-03-22T11:52:15.786Z,25
2023-03-22T11:54:45.978Z,25
2023-03-22T11:57:16.504Z,22
2023-03-22T11:59:47.274Z,25
2023-03-22T12:02:18.037Z,24
2023-03-22T12:04:48.739Z,24
2023-03-22T12:07:18.944Z,28
2023-03-22T12:09:49.530Z,20
2023-03-22T12:12:20.066Z,28
2023-03-22T12:14:50.270Z,25
2023-03-22T12:17:20.546Z,22
2023-03-22T12:19:50.638Z,25
2023-03-22T12:22:22.264Z,20
2023-03-22T12:24:52.930Z,23
2023-03-22T12:27:23.385Z,24
2023-03-22T12:29:54.009Z,24
2023-03-22T12:32:26.065Z,21
2023-03-22T12:35:05.375Z,21
2023-03-22T12:37:25.712Z,31
2023-03-22T12:39:58.349Z,22
2023-03-22T12:42:30.783Z,24
2023-03-22T12:45:05.322Z,28
2023-03-22T12:47:40.270Z,21
2023-03-22T12:50:20.802Z,78
2023-03-22T12:52:50.135Z,29
2023-03-22T12:55:21.345Z,20
2023-03-22T12:57:52.048Z,31
2023-03-22T13:00:26.234Z,27
2023-03-22T13:02:56.303Z,27
2023-03-22T13:05:28.811Z,28
2023-03-22T13:07:59.170Z,32
2023-03-22T13:10:29.341Z,31
2023-03-22T13:12:59.848Z,23
2023-03-22T13:15:38.784Z,24
2023-03-22T13:18:01.822Z,25
2023-03-22T13:20:32.466Z,25
2023-03-22T13:23:03.075Z,25
2023-03-22T13:25:34.456Z,21
2023-03-22T13:28:05.438Z,20
2023-03-22T13:30:36.102Z,25
2023-03-22T13:33:06.644Z,19
2023-03-22T13:35:36.873Z,21
2023-03-22T13:38:07.622Z,23
2023-03-22T13:43:40.751Z,20
2023-03-22T13:46:10.191Z,25
2023-03-22T13:48:44.071Z,21
2023-03-22T13:51:14.521Z,16
2023-03-22T13:53:45.543Z,22
2023-03-22T13:56:16.338Z,20
2023-03-22T13:58:46.924Z,21
2023-03-22T14:01:17.331Z,29
2023-03-22T14:03:47.832Z,23
2023-03-22T14:06:18.594Z,19
2023-03-22T14:08:49.351Z,24
2023-03-22T14:11:20.285Z,21
2023-03-22T14:13:50.935Z,31
2023-03-22T14:16:21.297Z,25
2023-03-22T14:18:51.204Z,23
2023-03-22T14:21:22.214Z,28
2023-03-22T14:46:53.945Z,26
2023-03-22T14:49:25.224Z,18
2023-03-22T14:51:56.817Z,28
2023-03-22T14:54:26.952Z,24
2023-03-22T14:56:58.005Z,18
2023-03-22T14:59:28.964Z,20
2023-03-22T15:02:04.830Z,16
2023-03-22T15:04:35.759Z,20
2023-03-22T15:07:04.392Z,27
2023-03-22T15:09:34.461Z,25
2023-03-22T15:12:04.968Z,27
2023-03-22T15:14:36.253Z,21
2023-03-22T15:17:13.305Z,16
2023-03-22T15:19:42.643Z,20
2023-03-22T15:22:13.444Z,20
2023-03-22T15:24:44.360Z,20
2023-03-22T15:27:14.466Z,20
2023-03-22T15:29:45.278Z,22
2023-03-22T15:32:16.579Z,22
2023-03-22T15:34:46.891Z,20
2023-03-22T15:37:17.947Z,22
2023-03-22T15:39:48.131Z,21
2023-03-22T15:42:19.341Z,20
2023-03-22T15:44:49.958Z,20
2023-03-22T15:47:20.833Z,23
2023-03-22T15:49:51.473Z,24
2023-03-22T15:52:29.858Z,20
2023-03-22T15:55:00.724Z,22
2023-03-22T15:57:31.144Z,20
2023-03-22T16:00:05.421Z,24
2023-03-22T16:02:35.628Z,36
2023-03-22T16:05:06.173Z,32
2023-03-22T16:07:37.134Z,32
2023-03-22T16:10:07.510Z,33
2023-03-22T16:12:37.863Z,35
2023-03-22T16:15:10.842Z,29
2023-03-22T16:17:41.442Z,26
2023-03-22T16:20:12.110Z,22
2023-03-22T16:22:43.046Z,30
2023-03-22T16:25:17.226Z,24
2023-03-22T16:27:47.348Z,29
2023-03-22T16:30:18.929Z,34
2023-03-22T16:32:49.780Z,28
2023-03-22T16:35:20.878Z,28
2023-03-22T16:37:51.747Z,28
2023-03-22T16:40:23.162Z,35
2023-03-22T16:43:04.174Z,24
2023-03-22T16:45:43.510Z,24
2023-03-22T16:48:18.987Z,25
2023-03-22T16:50:55.700Z,24
2023-03-22T16:53:30.347Z,28
2023-03-22T16:55:57.893Z,28
2023-03-22T16:58:28.496Z,30
2023-03-22T17:01:03.847Z,20
2023-03-22T17:03:35.392Z,30
2023-03-22T17:06:08.115Z,28
2023-03-22T17:08:42.813Z,22
2023-03-22T17:11:11.845Z,27
2023-03-22T17:13:43.671Z,32
2023-03-22T17:16:14.207Z,26
2023-03-22T17:18:48.648Z,31
2023-03-22T17:21:20.807Z,34
2023-03-22T17:23:52.450Z,35
2023-03-22T17:26:34.012Z,30
2023-03-22T17:29:07.536Z,40
2023-03-22T17:31:38.383Z,39
2023-03-22T17:34:14.461Z,40
2023-03-22T17:36:45.696Z,34
2023-03-22T17:39:36.000Z,44
2023-03-22T17:41:51.990Z,41
2023-03-22T17:44:22.544Z,33
2023-03-22T17:49:35.266Z,48
2023-03-22T17:52:08.242Z,39
2023-03-22T17:59:46.550Z,47
2023-03-22T18:02:25.557Z,49
2023-03-22T18:04:48.254Z,85
2023-03-22T18:07:19.188Z,75
2023-03-22T18:09:51.857Z,77
2023-03-22T18:12:22.027Z,64
2023-03-22T18:15:01.900Z,56
2023-03-22T18:17:33.491Z,64
2023-03-22T18:20:14.728Z,72
2023-03-22T18:22:36.963Z,76
2023-03-22T18:25:07.274Z,76
2023-03-22T18:27:45.970Z,81
2023-03-22T18:30:08.033Z,93
2023-03-22T18:32:55.171Z,100
2023-03-22T18:35:18.369Z,101
2023-03-22T18:37:49.623Z,90
2023-03-22T18:40:54.353Z,100
2023-03-22T18:42:53.668Z,100
2023-03-22T18:45:32.461Z,93
2023-03-22T18:47:59.100Z,104
2023-03-22T18:50:29.406Z,97
2023-03-22T18:58:00.117Z,97
2023-03-22T19:00:30.966Z,98
2023-03-22T19:03:01.326Z,91
2023-03-22T19:05:30.451Z,85
2023-03-22T19:10:31.429Z,84
2023-03-22T19:13:02.734Z,85
2023-03-22T19:15:44.297Z,82
2023-03-22T19:18:02.564Z,82
2023-03-22T19:20:39.902Z,95
2023-03-22T19:23:04.135Z,85
2023-03-22T19:25:34.068Z,91
2023-03-22T19:28:04.077Z,105
2023-03-22T19:30:32.344Z,99
2023-03-22T19:33:27.515Z,111
2023-03-22T19:35:33.507Z,101
2023-03-22T19:38:03.345Z,107
2023-03-22T19:41:24.067Z,112
2023-03-22T19:43:05.953Z,111
2023-03-22T19:45:36.429Z,107
2023-03-22T19:48:07.456Z,109
2023-03-22T19:50:38.540Z,89
2023-03-22T19:53:31.567Z,84
2023-03-22T19:55:39.150Z,83
2023-03-22T19:58:09.432Z,78
2023-03-22T20:03:09.825Z,84
2023-03-22T20:05:47.901Z,84
2023-03-22T20:08:11.438Z,86
2023-03-22T20:10:40.682Z,85
2023-03-22T20:13:10.824Z,98
2023-03-22T20:15:43.208Z,103
2023-03-22T20:18:14.210Z,94
2023-03-22T20:20:44.857Z,88
2023-03-22T20:23:25.265Z,96
2023-03-22T20:25:54.901Z,96
2023-03-22T20:28:25.083Z,120
2023-03-22T20:30:55.312Z,173
2023-03-22T20:33:26.649Z,90
2023-03-22T20:35:56.597Z,99
2023-03-22T20:38:26.639Z,109
2023-03-22T20:40:56.604Z,106
2023-03-22T20:43:26.916Z,98
2023-03-22T20:45:56.888Z,98
2023-03-22T20:48:26.844Z,99
2023-03-22T20:50:56.591Z,108
2023-03-22T20:53:27.832Z,140
2023-03-22T20:55:58.096Z,168
2023-03-22T20:58:28.571Z,203
2023-03-22T21:00:58.660Z,123
2023-03-22T21:03:28.812Z,108
2023-03-22T21:05:58.972Z,88
2023-03-22T21:08:29.638Z,91
2023-03-22T21:10:59.302Z,85
2023-03-22T21:13:30.309Z,82
2023-03-22T21:16:00.590Z,83
2023-03-22T21:18:30.531Z,84
2023-03-22T21:21:00.294Z,84
2023-03-22T21:23:30.106Z,88
2023-03-22T21:26:00.323Z,88
2023-03-22T21:28:30.501Z,88
2023-03-22T21:31:04.700Z,86
2023-03-22T21:33:34.853Z,84
2023-03-22T21:36:05.317Z,83
2023-03-22T21:38:35.306Z,91
2023-03-22T21:41:08.778Z,84
2023-03-22T21:43:39.612Z,91
2023-03-22T21:46:10.258Z,95
2023-03-22T21:48:40.166Z,97
2023-03-22T21:51:14.308Z,88
2023-03-22T21:53:43.959Z,89
2023-03-22T21:56:13.995Z,88
2023-03-22T21:58:43.807Z,88
2023-03-22T22:01:15.555Z,84
2023-03-22T22:03:45.478Z,84
2023-03-22T22:06:16.134Z,84
2023-03-22T22:08:50.278Z,83
2023-03-22T22:11:20.768Z,87
2023-03-22T22:13:52.047Z,86
2023-03-22T22:16:23.650Z,87
2023-03-22T22:18:54.103Z,88
2023-03-22T22:21:24.251Z,85
2023-03-22T22:23:54.596Z,89
2023-03-22T22:26:25.741Z,84
2023-03-22T22:28:55.627Z,89
2023-03-22T22:31:25.822Z,82
2023-03-22T22:33:56.057Z,85
2023-03-22T22:36:26.244Z,94
2023-03-22T22:38:56.138Z,87
2023-03-22T22:41:26.458Z,88
2023-03-22T22:43:57.684Z,86
2023-03-22T22:46:28.303Z,82
2023-03-22T22:48:57.639Z,87
2023-03-22T22:51:27.716Z,88
2023-03-22T22:53:58.047Z,84
2023-03-22T22:56:32.484Z,89
2023-03-22T22:59:11.387Z,84
2023-03-22T23:01:39.985Z,85
2023-03-22T23:04:10.020Z,89
2023-03-22T23:06:48.297Z,89
2023-03-22T23:09:22.366Z,88
2023-03-22T23:11:58.391Z,84
2023-03-22T23:14:28.235Z,90
2023-03-22T23:16:58.102Z,92
2023-03-22T23:19:27.167Z,92
2023-03-22T23:21:57.005Z,85
2023-03-22T23:24:28.433Z,84
2023-03-22T23:26:58.651Z,92
2023-03-22T23:29:30.962Z,94
2023-03-22T23:32:05.398Z,80
2023-03-22T23:34:35.483Z,84
2023-03-22T23:37:05.868Z,88
2023-03-22T23:39:37.882Z,92
2023-03-22T23:42:12.107Z,89
2023-03-22T23:44:42.418Z,103
2023-03-22T23:47:16.862Z,87
2023-03-22T23:49:48.337Z,89
2023-03-22T23:52:18.802Z,88
2023-03-22T23:54:49.996Z,91
2023-03-22T23:57:20.252Z,89
2023-03-22T23:59:50.621Z,84
